createdAt,value
2023-04-08T00:01:42.857Z,5.70
2023-04-08T00:04:09.972Z,5.70
2023-04-08T00:06:52.067Z,5.70
2023-04-08T00:09:18.765Z,5.70
2023-04-08T00:11:45.386Z,5.70
2023-04-08T00:14:12.066Z,5.70
2023-04-08T00:16:38.739Z,5.70
2023-04-08T00:19:06.863Z,5.70
2023-04-08T00:21:33.567Z,5.70
2023-04-08T00:24:00.486Z,5.70
2023-04-08T00:26:27.290Z,5.70
2023-04-08T00:28:54.011Z,5.70
2023-04-08T00:31:20.887Z,5.70
2023-04-08T00:33:47.780Z,5.70
2023-04-08T00:36:14.432Z,5.70
2023-04-08T00:38:41.239Z,5.70
2023-04-08T00:41:07.947Z,5.70
2023-04-08T00:43:34.661Z,5.70
2023-04-08T00:46:01.529Z,5.80
2023-04-08T00:48:29.700Z,5.70
2023-04-08T00:50:56.390Z,5.70
2023-04-08T00:53:24.289Z,5.70
2023-04-08T00:55:52.390Z,5.70
2023-04-08T00:58:19.386Z,5.70
2023-04-08T01:00:53.002Z,5.70
2023-04-08T01:03:42.422Z,5.70
2023-04-08T01:06:28.238Z,5.70
2023-04-08T01:08:55.154Z,5.70
2023-04-08T01:11:21.946Z,5.70
2023-04-08T01:13:51.483Z,5.70
2023-04-08T01:16:19.137Z,5.70
2023-04-08T01:18:47.937Z,5.70
2023-04-08T01:21:16.545Z,5.70
2023-04-08T01:24:04.619Z,5.70
2023-04-08T01:26:31.695Z,5.70
2023-04-08T01:29:01.846Z,5.70
2023-04-08T01:31:29.027Z,5.70
2023-04-08T01:33:57.657Z,5.70
2023-04-08T01:36:26.152Z,5.70
2023-04-08T01:38:52.845Z,5.70
2023-04-08T01:41:21.266Z,5.70
2023-04-08T01:43:49.755Z,5.70
2023-04-08T01:46:17.029Z,5.70
2023-04-08T01:48:45.113Z,5.80
2023-04-08T01:51:12.454Z,5.80
2023-04-08T01:53:39.304Z,5.80
2023-04-08T01:56:09.440Z,5.80
2023-04-08T01:58:39.258Z,5.70
2023-04-08T02:01:17.063Z,5.80
2023-04-08T02:03:45.131Z,5.80
2023-04-08T02:06:11.867Z,5.80
2023-04-08T02:08:38.485Z,5.80
2023-04-08T02:11:05.642Z,5.80
2023-04-08T02:13:32.927Z,5.70
2023-04-08T02:16:24.205Z,5.80
2023-04-08T02:18:58.259Z,5.80
2023-04-08T02:21:44.311Z,5.80
2023-04-08T02:24:13.880Z,5.90
2023-04-08T02:26:43.880Z,5.80
2023-04-08T02:29:15.783Z,5.80
2023-04-08T02:31:43.943Z,5.80
2023-04-08T02:34:11.844Z,5.80
2023-04-08T02:36:40.970Z,5.80
2023-04-08T02:39:07.789Z,5.80
2023-04-08T02:41:34.670Z,5.80
2023-04-08T02:44:01.288Z,5.80
2023-04-08T02:46:27.964Z,5.80
2023-04-08T02:48:54.658Z,5.80
2023-04-08T02:51:21.569Z,5.90
2023-04-08T02:53:48.230Z,5.80
2023-04-08T02:56:14.910Z,5.80
2023-04-08T02:58:41.519Z,5.90
2023-04-08T03:01:09.082Z,5.90
2023-04-08T03:03:36.738Z,5.90
2023-04-08T03:06:03.773Z,5.90
2023-04-08T03:08:30.546Z,5.90
2023-04-08T03:10:57.168Z,5.90
2023-04-08T03:13:23.955Z,5.80
2023-04-08T03:15:50.858Z,5.80
2023-04-08T03:18:18.009Z,5.80
2023-04-08T03:20:44.679Z,5.90
2023-04-08T03:23:11.268Z,5.90
2023-04-08T03:25:38.138Z,5.90
2023-04-08T03:28:04.846Z,5.90
2023-04-08T03:30:31.841Z,5.90
2023-04-08T03:32:58.617Z,5.90
2023-04-08T03:35:25.576Z,5.90
2023-04-08T03:37:52.436Z,5.90
2023-04-08T03:40:19.143Z,5.90
2023-04-08T03:42:46.226Z,5.90
2023-04-08T03:45:12.834Z,5.90
2023-04-08T03:47:39.515Z,5.90
2023-04-08T03:50:06.639Z,5.90
2023-04-08T03:52:33.406Z,5.90
2023-04-08T03:54:59.995Z,5.90
2023-04-08T03:57:26.603Z,5.90
2023-04-08T03:59:53.495Z,5.90
2023-04-08T04:02:20.324Z,5.90
2023-04-08T04:04:47.096Z,5.90
2023-04-08T04:07:13.712Z,5.90
2023-04-08T04:09:40.440Z,5.90
2023-04-08T04:12:07.090Z,5.90
2023-04-08T04:14:33.716Z,5.90
2023-04-08T04:17:00.343Z,5.90
2023-04-08T04:19:31.297Z,5.90
2023-04-08T04:21:57.930Z,5.90
2023-04-08T04:24:24.592Z,5.80
2023-04-08T04:26:51.237Z,5.80
2023-04-08T04:29:17.932Z,5.90
2023-04-08T04:31:44.605Z,5.90
2023-04-08T04:34:11.432Z,5.90
2023-04-08T04:36:38.024Z,5.90
2023-04-08T04:39:04.688Z,5.90
2023-04-08T04:41:31.486Z,5.90
2023-04-08T04:43:58.288Z,5.90
2023-04-08T04:46:24.941Z,5.90
2023-04-08T04:48:51.899Z,5.90
2023-04-08T04:51:18.753Z,5.90
2023-04-08T04:53:45.417Z,5.90
2023-04-08T04:56:12.041Z,6.00
2023-04-08T04:58:39.032Z,6.00
2023-04-08T05:01:06.082Z,5.90
2023-04-08T05:03:32.715Z,5.90
2023-04-08T05:05:59.650Z,6.00
2023-04-08T05:08:27.843Z,6.00
2023-04-08T05:10:56.189Z,6.00
2023-04-08T05:13:22.968Z,6.10
2023-04-08T05:15:49.921Z,6.10
2023-04-08T05:18:16.623Z,6.00
2023-04-08T05:20:43.293Z,6.10
2023-04-08T05:23:09.967Z,6.10
2023-04-08T05:25:36.912Z,6.00
2023-04-08T05:28:04.335Z,6.00
2023-04-08T05:30:31.545Z,6.00
2023-04-08T05:33:00.311Z,6.00
2023-04-08T05:35:28.100Z,6.00
2023-04-08T05:37:54.740Z,6.10
2023-04-08T05:40:21.497Z,6.10
2023-04-08T05:42:48.294Z,6.10
2023-04-08T05:45:15.155Z,6.10
2023-04-08T05:47:41.897Z,6.10
2023-04-08T05:50:08.957Z,6.10
2023-04-08T05:52:35.620Z,6.20
2023-04-08T05:55:02.253Z,6.20
2023-04-08T05:57:28.849Z,6.20
2023-04-08T05:59:55.610Z,6.20
2023-04-08T06:02:22.453Z,6.30
2023-04-08T06:04:49.192Z,6.30
2023-04-08T06:07:16.023Z,6.40
2023-04-08T06:09:44.334Z,6.40
2023-04-08T06:12:12.052Z,6.50
2023-04-08T06:14:38.668Z,6.50
2023-04-08T06:17:05.518Z,6.50
2023-04-08T06:19:32.290Z,6.50
2023-04-08T06:21:59.362Z,6.50
2023-04-08T06:24:29.540Z,6.50
2023-04-08T06:26:56.674Z,6.50
2023-04-08T06:29:23.834Z,6.50
2023-04-08T06:31:51.263Z,6.60
2023-04-08T06:34:18.005Z,6.60
2023-04-08T06:36:44.674Z,6.60
2023-04-08T06:39:11.355Z,6.70
2023-04-08T06:41:38.112Z,6.70
2023-04-08T06:44:04.873Z,6.80
2023-04-08T06:46:31.541Z,6.80
2023-04-08T06:48:58.148Z,6.90
2023-04-08T06:51:24.909Z,6.90
2023-04-08T06:53:52.030Z,6.90
2023-04-08T06:56:18.755Z,6.90
2023-04-08T06:58:45.497Z,6.90
2023-04-08T07:01:12.378Z,6.90
2023-04-08T07:03:39.143Z,7.00
2023-04-08T07:06:05.947Z,6.90
2023-04-08T07:08:32.893Z,7.00
2023-04-08T07:10:59.517Z,7.00
2023-04-08T07:13:26.136Z,7.10
2023-04-08T07:15:52.816Z,7.10
2023-04-08T07:18:21.417Z,7.10
2023-04-08T07:20:54.459Z,7.20
2023-04-08T07:23:21.681Z,7.30
2023-04-08T07:25:48.372Z,7.30
2023-04-08T07:28:15.202Z,7.30
2023-04-08T07:30:41.855Z,7.30
2023-04-08T07:33:08.683Z,7.40
2023-04-08T07:35:35.685Z,7.40
2023-04-08T07:38:02.486Z,7.50
2023-04-08T07:40:29.851Z,7.50
2023-04-08T07:42:56.852Z,7.50
2023-04-08T07:45:23.527Z,7.50
2023-04-08T07:47:50.565Z,7.50
2023-04-08T07:50:17.590Z,7.50
2023-04-08T07:52:44.362Z,7.60
2023-04-08T07:55:11.562Z,7.60
2023-04-08T07:57:38.502Z,7.60
2023-04-08T08:00:05.803Z,7.70
2023-04-08T08:02:34.287Z,7.80
2023-04-08T08:05:03.252Z,7.80
2023-04-08T08:07:30.201Z,7.90
2023-04-08T08:09:56.821Z,7.90
2023-04-08T08:12:23.532Z,7.90
2023-04-08T08:14:51.050Z,8.00
2023-04-08T08:17:17.696Z,8.10
2023-04-08T08:19:44.382Z,8.10
2023-04-08T08:22:12.227Z,8.20
2023-04-08T08:24:38.875Z,8.20
2023-04-08T08:27:06.392Z,8.10
2023-04-08T08:29:33.650Z,8.20
2023-04-08T08:32:00.307Z,8.30
2023-04-08T08:34:27.217Z,8.40
2023-04-08T08:36:53.855Z,8.40
2023-04-08T08:39:20.688Z,8.40
2023-04-08T08:41:47.367Z,8.60
2023-04-08T08:44:14.660Z,8.70
2023-04-08T08:46:45.439Z,8.70
2023-04-08T08:49:12.518Z,8.70
2023-04-08T08:51:40.842Z,8.80
2023-04-08T08:54:08.533Z,9.00
2023-04-08T08:56:35.401Z,9.30
2023-04-08T08:59:02.194Z,9.30
2023-04-08T09:01:40.609Z,9.40
2023-04-08T09:04:08.662Z,9.30
2023-04-08T09:06:36.833Z,9.20
2023-04-08T09:09:06.089Z,9.30
2023-04-08T09:11:33.488Z,9.40
2023-04-08T09:14:00.153Z,9.40
2023-04-08T09:16:27.801Z,9.40
2023-04-08T09:18:54.673Z,9.30
2023-04-08T09:21:27.363Z,9.50
2023-04-08T09:23:54.342Z,9.70
2023-04-08T09:26:24.516Z,9.80
2023-04-08T09:29:25.586Z,9.80
2023-04-08T09:31:57.771Z,9.50
2023-04-08T09:34:27.708Z,9.60
2023-04-08T09:36:55.746Z,9.80
2023-04-08T09:39:22.955Z,9.80
2023-04-08T09:41:51.161Z,9.80
2023-04-08T09:44:21.106Z,9.90
2023-04-08T09:46:50.953Z,9.90
2023-04-08T09:49:29.956Z,10.10
2023-04-08T09:52:08.226Z,10.40
2023-04-08T09:54:59.902Z,10.60
2023-04-08T09:57:55.661Z,10.50
2023-04-08T10:00:28.808Z,10.70
2023-04-08T10:03:11.529Z,10.80
2023-04-08T10:05:40.739Z,10.90
2023-04-08T10:08:07.902Z,11.00
2023-04-08T10:10:40.281Z,11.10
2023-04-08T10:13:08.090Z,11.10
2023-04-08T10:15:36.882Z,11.00
2023-04-08T10:18:04.536Z,11.20
2023-04-08T10:20:34.577Z,11.40
2023-04-08T10:23:01.759Z,11.40
2023-04-08T10:25:30.773Z,11.50
2023-04-08T10:27:57.638Z,11.80
2023-04-08T10:30:33.357Z,11.40
2023-04-08T10:33:00.903Z,11.50
2023-04-08T10:35:31.353Z,11.80
2023-04-08T10:37:59.163Z,11.60
2023-04-08T10:40:26.320Z,11.80
2023-04-08T10:42:56.690Z,11.90
2023-04-08T10:45:23.973Z,12.10
2023-04-08T10:47:52.032Z,12.30
2023-04-08T10:50:21.261Z,12.20
2023-04-08T10:52:52.167Z,11.70
2023-04-08T10:55:29.578Z,11.60
2023-04-08T10:57:58.215Z,11.90
2023-04-08T11:00:35.719Z,11.90
2023-04-08T11:03:13.712Z,12.00
2023-04-08T11:05:42.534Z,12.30
2023-04-08T11:08:09.213Z,12.40
2023-04-08T11:10:39.480Z,12.50
2023-04-08T11:13:09.970Z,12.60
2023-04-08T11:15:37.332Z,12.60
2023-04-08T11:18:05.644Z,12.30
2023-04-08T11:20:36.233Z,12.10
2023-04-08T11:23:03.610Z,12.40
2023-04-08T11:25:30.566Z,12.60
2023-04-08T11:27:57.369Z,13.00
2023-04-08T11:30:24.438Z,13.30
2023-04-08T11:32:52.454Z,13.50
2023-04-08T11:35:20.436Z,13.50
2023-04-08T11:37:47.818Z,13.70
2023-04-08T11:40:22.303Z,13.70
2023-04-08T11:42:49.992Z,13.80
2023-04-08T11:45:18.254Z,13.70
2023-04-08T11:47:45.960Z,13.50
2023-04-08T11:50:13.005Z,13.00
2023-04-08T11:52:53.359Z,13.30
2023-04-08T11:55:30.422Z,13.50
2023-04-08T11:58:02.452Z,13.40
2023-04-08T12:00:29.224Z,13.20
2023-04-08T12:02:56.142Z,12.60
2023-04-08T12:05:22.926Z,12.70
2023-04-08T12:07:49.601Z,13.10
2023-04-08T12:10:16.364Z,13.60
2023-04-08T12:12:43.124Z,13.80
2023-04-08T12:15:10.482Z,13.50
2023-04-08T12:17:38.737Z,13.80
2023-04-08T12:20:06.618Z,14.20
2023-04-08T12:22:33.747Z,13.70
2023-04-08T12:25:00.495Z,13.00
2023-04-08T12:27:27.106Z,13.00
2023-04-08T12:29:53.874Z,13.20
2023-04-08T12:32:21.619Z,13.20
2023-04-08T12:34:48.334Z,13.20
2023-04-08T12:37:15.054Z,12.80
2023-04-08T12:39:41.994Z,12.80
2023-04-08T12:42:09.235Z,13.10
2023-04-08T12:44:35.995Z,13.40
2023-04-08T12:47:02.710Z,13.30
2023-04-08T12:49:30.824Z,13.30
2023-04-08T12:51:58.927Z,13.70
2023-04-08T12:54:25.657Z,13.80
2023-04-08T12:56:52.264Z,14.10
2023-04-08T12:59:19.275Z,14.20
2023-04-08T13:01:46.161Z,13.50
2023-04-08T13:04:12.840Z,13.90
2023-04-08T13:06:39.517Z,14.70
2023-04-08T13:09:06.181Z,15.10
2023-04-08T13:11:34.095Z,15.60
2023-04-08T13:14:00.768Z,15.70
2023-04-08T13:16:27.512Z,15.20
2023-04-08T13:18:54.222Z,15.20
2023-04-08T13:21:21.512Z,15.50
2023-04-08T13:23:48.261Z,15.80
2023-04-08T13:26:14.891Z,16.40
2023-04-08T13:28:55.906Z,16.70
2023-04-08T13:31:23.718Z,17.20
2023-04-08T13:33:50.583Z,16.90
2023-04-08T13:36:18.977Z,16.90
2023-04-08T13:38:46.228Z,17.30
2023-04-08T13:41:12.971Z,17.70
2023-04-08T13:43:39.651Z,18.20
2023-04-08T13:46:06.324Z,18.60
2023-04-08T13:48:33.016Z,19.00
2023-04-08T13:50:59.622Z,18.50
2023-04-08T13:53:26.322Z,18.50
2023-04-08T13:55:55.217Z,18.00
2023-04-08T13:58:24.350Z,17.60
2023-04-08T14:00:51.916Z,17.70
2023-04-08T14:03:19.466Z,18.10
2023-04-08T14:05:46.501Z,19.00
2023-04-08T14:08:13.850Z,19.50
2023-04-08T14:10:41.940Z,19.80
2023-04-08T14:13:09.347Z,19.20
2023-04-08T14:15:36.313Z,19.60
2023-04-08T14:18:03.131Z,18.80
2023-04-08T14:20:30.447Z,19.20
2023-04-08T14:22:57.119Z,19.60
2023-04-08T14:25:24.705Z,19.90
2023-04-08T14:27:58.552Z,20.10
2023-04-08T14:30:27.227Z,19.90
2023-04-08T14:32:54.611Z,18.90
2023-04-08T14:35:21.647Z,18.20
2023-04-08T14:37:48.352Z,18.00
2023-04-08T14:40:15.032Z,17.40
2023-04-08T14:42:41.847Z,17.90
2023-04-08T14:45:09.093Z,17.10
2023-04-08T14:47:36.020Z,16.40
2023-04-08T14:50:02.830Z,16.10
2023-04-08T14:52:29.593Z,16.60
2023-04-08T14:54:56.473Z,17.40
2023-04-08T14:57:23.127Z,18.10
2023-04-08T14:59:49.816Z,17.60
2023-04-08T15:02:16.729Z,17.50
2023-04-08T15:04:43.449Z,17.40
2023-04-08T15:07:10.227Z,17.50
2023-04-08T15:09:36.890Z,17.40
2023-04-08T15:12:03.807Z,16.90
2023-04-08T15:14:30.557Z,17.50
2023-04-08T15:16:57.233Z,18.10
2023-04-08T15:19:23.973Z,18.50
2023-04-08T15:21:50.675Z,17.90
2023-04-08T15:24:17.464Z,17.80
2023-04-08T15:26:44.090Z,18.40
2023-04-08T15:29:11.083Z,18.50
2023-04-08T15:31:37.883Z,18.30
2023-04-08T15:34:04.652Z,18.40
2023-04-08T15:36:31.406Z,18.60
2023-04-08T15:38:58.063Z,18.60
2023-04-08T15:41:24.751Z,18.10
2023-04-08T15:43:53.086Z,17.90
2023-04-08T15:46:22.942Z,16.90
2023-04-08T15:48:50.810Z,16.60
2023-04-08T15:51:18.043Z,16.50
2023-04-08T15:53:44.906Z,16.70
2023-04-08T15:56:18.443Z,17.00
2023-04-08T15:58:46.192Z,17.10
2023-04-08T16:01:13.691Z,16.90
2023-04-08T16:03:40.941Z,17.10
2023-04-08T16:06:08.587Z,17.10
2023-04-08T16:08:35.320Z,16.70
2023-04-08T16:11:03.574Z,16.60
2023-04-08T16:13:30.780Z,16.60
2023-04-08T16:15:58.523Z,16.50
2023-04-08T16:18:25.729Z,16.60
2023-04-08T16:20:52.616Z,16.60
2023-04-08T16:23:19.652Z,16.40
2023-04-08T16:25:46.711Z,16.20
2023-04-08T16:28:13.470Z,15.90
2023-04-08T16:30:43.514Z,15.90
2023-04-08T16:33:14.141Z,15.90
2023-04-08T16:35:40.804Z,15.90
2023-04-08T16:38:07.586Z,15.80
2023-04-08T16:40:34.963Z,15.60
2023-04-08T16:43:02.353Z,15.30
2023-04-08T16:45:30.177Z,15.10
2023-04-08T16:47:57.318Z,14.80
2023-04-08T16:50:24.382Z,14.60
2023-04-08T16:52:51.140Z,14.10
2023-04-08T16:55:18.159Z,14.00
2023-04-08T16:57:44.872Z,14.00
2023-04-08T17:00:11.865Z,13.80
2023-04-08T17:02:38.684Z,13.50
2023-04-08T17:05:06.319Z,13.20
2023-04-08T17:07:32.988Z,13.10
2023-04-08T17:09:59.886Z,12.90
2023-04-08T17:12:26.998Z,12.50
2023-04-08T17:14:54.109Z,12.20
2023-04-08T17:17:20.825Z,12.10
2023-04-08T17:19:47.526Z,12.10
2023-04-08T17:22:14.182Z,12.00
2023-04-08T17:24:40.889Z,11.80
2023-04-08T17:27:07.486Z,11.60
2023-04-08T17:29:34.178Z,11.40
2023-04-08T17:32:01.355Z,11.30
2023-04-08T17:34:29.176Z,11.10
2023-04-08T17:36:56.899Z,10.90
2023-04-08T17:39:23.548Z,10.90
2023-04-08T17:41:50.177Z,10.80
2023-04-08T17:44:17.400Z,10.60
2023-04-08T17:46:44.134Z,10.50
2023-04-08T17:49:14.204Z,10.50
2023-04-08T17:51:40.999Z,10.30
2023-04-08T17:54:07.676Z,10.20
2023-04-08T17:56:34.405Z,10.10
2023-04-08T17:59:01.850Z,9.90
2023-04-08T18:01:28.747Z,9.80
2023-04-08T18:03:56.052Z,9.70
2023-04-08T18:06:22.847Z,9.60
2023-04-08T18:08:49.802Z,9.60
2023-04-08T18:11:16.430Z,9.50
2023-04-08T18:13:43.105Z,9.40
2023-04-08T18:16:17.260Z,9.30
2023-04-08T18:18:44.528Z,9.10
2023-04-08T18:21:11.210Z,9.00
2023-04-08T18:23:37.921Z,8.90
2023-04-08T18:26:04.648Z,8.80
2023-04-08T18:28:31.563Z,8.70
2023-04-08T18:30:58.405Z,8.60
2023-04-08T18:33:25.357Z,8.50
2023-04-08T18:35:52.791Z,8.50
2023-04-08T18:38:19.662Z,8.40
2023-04-08T18:40:46.620Z,8.30
2023-04-08T18:43:13.765Z,8.20
2023-04-08T18:45:41.246Z,8.20
2023-04-08T18:48:08.373Z,8.20
2023-04-08T18:50:35.217Z,8.10
2023-04-08T18:53:02.542Z,8.10
2023-04-08T18:55:29.347Z,8.10
2023-04-08T18:57:56.225Z,8.00
2023-04-08T19:00:23.024Z,8.00
2023-04-08T19:02:50.245Z,8.00
2023-04-08T19:05:17.852Z,7.90
2023-04-08T19:07:44.654Z,7.90
2023-04-08T19:10:11.295Z,7.80
2023-04-08T19:12:38.155Z,7.80
2023-04-08T19:15:05.381Z,7.80
2023-04-08T19:17:32.120Z,7.80
2023-04-08T19:19:58.906Z,7.80
2023-04-08T19:22:25.561Z,7.80
2023-04-08T19:24:54.832Z,7.80
2023-04-08T19:27:21.817Z,7.80
2023-04-08T19:29:48.425Z,7.80
2023-04-08T19:32:15.334Z,7.80
2023-04-08T19:34:42.472Z,7.80
2023-04-08T19:37:09.315Z,7.80
2023-04-08T19:39:36.110Z,7.80
2023-04-08T19:42:02.785Z,7.80
2023-04-08T19:44:29.386Z,7.80
2023-04-08T19:46:57.872Z,7.80
2023-04-08T19:49:24.863Z,7.80
2023-04-08T19:51:51.908Z,7.80
2023-04-08T19:54:18.536Z,7.80
2023-04-08T19:56:45.643Z,7.70
2023-04-08T19:59:12.584Z,7.60
2023-04-08T20:01:40.582Z,7.60
2023-04-08T20:04:07.289Z,7.50
2023-04-08T20:06:34.846Z,7.50
2023-04-08T20:09:05.453Z,7.50
2023-04-08T20:11:33.213Z,7.40
2023-04-08T20:13:59.949Z,7.30
2023-04-08T20:16:26.809Z,7.20
2023-04-08T20:18:53.661Z,7.20
2023-04-08T20:21:20.326Z,7.20
2023-04-08T20:23:47.384Z,7.20
2023-04-08T20:26:14.924Z,7.20
2023-04-08T20:28:43.546Z,7.20
2023-04-08T20:31:10.456Z,7.20
2023-04-08T20:33:43.757Z,7.10
2023-04-08T20:36:12.462Z,7.10
2023-04-08T20:38:39.821Z,7.00
2023-04-08T20:41:07.130Z,7.00
2023-04-08T20:43:34.087Z,7.00
2023-04-08T20:46:01.067Z,7.00
2023-04-08T20:48:29.644Z,7.00
2023-04-08T20:50:57.532Z,7.00
2023-04-08T20:53:24.605Z,7.00
2023-04-08T20:55:51.938Z,7.10
2023-04-08T20:58:18.688Z,7.10
2023-04-08T21:00:47.468Z,7.10
2023-04-08T21:03:15.453Z,7.10
2023-04-08T21:05:42.344Z,7.10
2023-04-08T21:08:09.427Z,7.00
2023-04-08T21:10:36.190Z,7.10
2023-04-08T21:13:02.961Z,7.10
2023-04-08T21:15:29.748Z,7.10
2023-04-08T21:17:56.470Z,7.10
2023-04-08T21:20:23.351Z,7.10
2023-04-08T21:22:50.103Z,7.10
2023-04-08T21:25:18.048Z,7.10
2023-04-08T21:27:44.869Z,7.00
2023-04-08T21:30:11.930Z,7.00
2023-04-08T21:32:38.947Z,6.90
2023-04-08T21:35:05.860Z,6.80
2023-04-08T21:37:32.533Z,6.70
2023-04-08T21:39:59.162Z,6.60
2023-04-08T21:42:26.416Z,6.50
2023-04-08T21:44:53.070Z,6.40
2023-04-08T21:47:19.723Z,6.30
2023-04-08T21:49:46.490Z,6.20
2023-04-08T21:52:13.245Z,6.10
2023-04-08T21:54:39.886Z,6.00
2023-04-08T21:57:06.536Z,5.80
2023-04-08T21:59:33.201Z,5.70
2023-04-08T22:01:59.944Z,5.60
2023-04-08T22:04:27.839Z,5.60
2023-04-08T22:06:54.636Z,5.50
2023-04-08T22:09:21.531Z,5.40
2023-04-08T22:11:48.218Z,5.40
2023-04-08T22:14:15.594Z,5.30
2023-04-08T22:16:43.102Z,5.20
2023-04-08T22:19:09.864Z,5.10
2023-04-08T22:21:36.652Z,5.10
2023-04-08T22:24:03.945Z,5.00
2023-04-08T22:26:30.576Z,4.90
2023-04-08T22:28:57.181Z,4.80
2023-04-08T22:31:24.047Z,4.80
2023-04-08T22:33:50.648Z,4.70
2023-04-08T22:36:17.275Z,4.60
2023-04-08T22:38:43.925Z,4.60
2023-04-08T22:41:20.940Z,4.50
2023-04-08T22:43:48.040Z,4.50
2023-04-08T22:46:15.167Z,4.40
2023-04-08T22:48:41.944Z,4.40
2023-04-08T22:51:09.284Z,4.30
2023-04-08T22:53:36.484Z,4.20
2023-04-08T22:56:03.801Z,4.20
2023-04-08T22:58:31.035Z,4.20
2023-04-08T23:00:58.286Z,4.10
2023-04-08T23:03:25.036Z,4.00
2023-04-08T23:05:51.821Z,4.00
2023-04-08T23:08:18.476Z,4.00
2023-04-08T23:10:45.328Z,3.90
2023-04-08T23:13:13.971Z,3.90
2023-04-08T23:15:40.862Z,3.80
2023-04-08T23:18:07.566Z,3.80
2023-04-08T23:20:35.506Z,3.70
2023-04-08T23:23:03.483Z,3.70
2023-04-08T23:25:30.604Z,3.70
2023-04-08T23:27:57.333Z,3.60
2023-04-08T23:30:23.932Z,3.50
2023-04-08T23:32:50.870Z,3.50
2023-04-08T23:35:17.887Z,3.40
2023-04-08T23:37:44.624Z,3.40
2023-04-08T23:40:11.472Z,3.30
2023-04-08T23:42:38.179Z,3.30
2023-04-08T23:45:05.915Z,3.30
2023-04-08T23:47:32.549Z,3.20
2023-04-08T23:49:59.431Z,3.10
2023-04-08T23:52:26.221Z,3.10
2023-04-08T23:54:52.835Z,3.10
2023-04-08T23:57:20.397Z,3.10
2023-04-08T23:59:47.755Z,3.00
